createdAt,value
2018-04-28T00:00:44.734Z,63.24
2018-04-28T00:03:12.665Z,62.93
2018-04-28T00:05:42.607Z,62.16
2018-04-28T00:08:12.162Z,62.11
2018-04-28T00:10:40.796Z,61.85
2018-04-28T00:13:08.598Z,62.35
2018-04-28T00:15:36.703Z,61.40
2018-04-28T00:18:04.674Z,61.69
2018-04-28T00:20:32.824Z,61.76
2018-04-28T00:23:04.459Z,62.49
2018-04-28T00:25:46.513Z,62.58
2018-04-28T00:31:35.416Z,62.04
2018-04-28T00:34:06.822Z,62.52
2018-04-28T00:36:46.221Z,62.95
2018-04-28T00:39:13.798Z,63.66
2018-04-28T00:41:43.227Z,63.25
2018-04-28T00:44:17.395Z,63.59
2018-04-28T00:46:45.782Z,63.36
2018-04-28T00:49:16.987Z,63.31
2018-04-28T00:51:48.366Z,63.86
2018-04-28T00:54:22.713Z,63.30
2018-04-28T01:00:11.243Z,63.57
2018-04-28T01:02:38.847Z,63.25
2018-04-28T01:05:06.422Z,62.97
2018-04-28T01:07:34.121Z,63.52
2018-04-28T01:13:03.502Z,62.25
2018-04-28T01:15:32.857Z,62.21
2018-04-28T01:18:01.103Z,61.89
2018-04-28T01:20:30.357Z,61.79
2018-04-28T01:25:57.636Z,61.34
2018-04-28T01:31:28.271Z,60.90
2018-04-28T01:34:04.728Z,59.79
2018-04-28T01:36:35.026Z,59.98
2018-04-28T01:39:08.346Z,60.62
2018-04-28T01:41:42.300Z,60.47
2018-04-28T01:47:16.413Z,59.89
2018-04-28T01:49:46.745Z,60.16
2018-04-28T01:52:14.314Z,61.19
2018-04-28T01:58:07.193Z,62.03
2018-04-28T02:00:42.484Z,62.23
2018-04-28T02:03:14.954Z,62.45
2018-04-28T02:09:11.729Z,63.00
2018-04-28T02:11:43.956Z,63.14
2018-04-28T02:17:15.261Z,63.29
2018-04-28T02:23:03.450Z,64.18
2018-04-28T02:28:51.854Z,63.06
2018-04-28T02:34:33.922Z,62.79
2018-04-28T02:37:11.354Z,62.95
2018-04-28T02:39:43.579Z,63.33
2018-04-28T02:45:20.264Z,63.85
2018-04-28T02:47:47.878Z,63.63
2018-04-28T02:50:26.605Z,65.00
2018-04-28T02:52:57.381Z,64.88
2018-04-28T02:58:40.702Z,65.79
2018-04-28T03:04:23.859Z,67.17
2018-04-28T03:06:54.161Z,66.85
2018-04-28T03:09:22.483Z,66.89
2018-04-28T03:14:51.563Z,66.99
2018-04-28T03:17:21.942Z,67.34
2018-04-28T03:20:05.147Z,67.49
2018-04-28T03:22:32.699Z,67.36
2018-04-28T03:25:06.771Z,67.21
2018-04-28T03:30:53.548Z,68.33
2018-04-28T03:33:43.848Z,68.50
2018-04-28T03:36:20.183Z,69.74
2018-04-28T03:41:45.614Z,69.89
2018-04-28T03:44:29.892Z,69.98
2018-04-28T03:47:07.374Z,70.70
2018-04-28T03:49:34.971Z,70.61
2018-04-28T03:52:12.220Z,69.99
2018-04-28T03:54:42.501Z,69.72
2018-04-28T04:00:21.403Z,70.21
2018-04-28T04:03:00.882Z,70.40
2018-04-28T04:05:35.268Z,70.07
2018-04-28T04:08:04.683Z,70.48
2018-04-28T04:10:49.821Z,69.88
2018-04-28T04:13:21.271Z,70.07
2018-04-28T04:18:51.145Z,69.61
2018-04-28T04:21:23.532Z,69.80
2018-04-28T04:24:02.984Z,69.94
2018-04-28T04:29:39.821Z,69.98
2018-04-28T04:32:12.105Z,69.52
2018-04-28T04:35:05.343Z,70.00
2018-04-28T04:37:43.959Z,69.66
2018-04-28T04:40:34.066Z,70.59
2018-04-28T04:43:22.297Z,71.61
2018-04-28T04:45:56.770Z,72.17
2018-04-28T04:51:49.850Z,72.16
2018-04-28T04:57:38.225Z,71.06
2018-04-28T05:03:17.585Z,71.38
2018-04-28T05:05:55.694Z,71.08
2018-04-28T05:11:38.171Z,71.76
2018-04-28T05:17:22.194Z,70.81
2018-04-28T05:20:01.547Z,70.75
2018-04-28T05:22:40.528Z,70.57
2018-04-28T05:25:26.734Z,70.38
2018-04-28T05:27:58.441Z,70.49
2018-04-28T05:33:47.640Z,69.92
2018-04-28T05:36:32.148Z,68.95
2018-04-28T05:42:26.971Z,68.44
2018-04-28T05:48:15.866Z,68.28
2018-04-28T05:53:56.157Z,67.61
2018-04-28T05:59:39.013Z,67.07
2018-04-28T06:02:10.267Z,67.15
2018-04-28T06:04:59.388Z,66.27
2018-04-28T06:07:32.901Z,66.45
2018-04-28T06:10:06.579Z,66.42
2018-04-28T06:12:40.503Z,66.75
2018-04-28T06:15:22.239Z,66.12
2018-04-28T06:20:49.633Z,64.86
2018-04-28T06:23:17.189Z,65.56
2018-04-28T06:25:44.801Z,65.57
2018-04-28T06:28:12.389Z,65.34
2018-04-28T06:30:40.248Z,64.81
2018-04-28T06:33:07.890Z,64.87
2018-04-28T06:35:38.613Z,65.03
2018-04-28T06:38:06.618Z,64.17
2018-04-28T06:40:34.452Z,64.46
2018-04-28T06:43:02.104Z,64.10
2018-04-28T06:45:29.661Z,63.84
2018-04-28T06:47:58.780Z,63.59
2018-04-28T06:50:26.355Z,63.90
2018-04-28T06:52:53.932Z,64.69
2018-04-28T06:55:21.485Z,63.90
2018-04-28T06:57:49.122Z,63.48
2018-04-28T07:00:17.167Z,63.46
2018-04-28T07:02:44.798Z,63.27
2018-04-28T07:05:12.375Z,63.53
2018-04-28T07:07:41.372Z,62.81
2018-04-28T07:10:08.977Z,63.01
2018-04-28T07:12:36.632Z,62.84
2018-04-28T07:15:04.183Z,62.65
2018-04-28T07:17:31.843Z,63.24
2018-04-28T07:19:59.415Z,62.62
2018-04-28T07:22:27.062Z,62.59
2018-04-28T07:24:54.593Z,63.08
2018-04-28T07:27:22.172Z,63.34
2018-04-28T07:29:50.945Z,63.31
2018-04-28T07:32:18.776Z,62.49
2018-04-28T07:34:47.294Z,62.43
2018-04-28T07:37:15.650Z,62.39
2018-04-28T07:39:43.230Z,63.00
2018-04-28T07:42:10.784Z,62.61
2018-04-28T07:44:39.378Z,61.97
2018-04-28T07:47:06.937Z,62.00
2018-04-28T07:49:37.617Z,62.53
2018-04-28T07:52:05.165Z,62.44
2018-04-28T07:54:33.693Z,62.65
2018-04-28T07:57:01.222Z,61.82
2018-04-28T07:59:29.423Z,61.26
2018-04-28T08:01:57.004Z,61.40
2018-04-28T08:04:24.569Z,61.40
2018-04-28T08:06:52.685Z,60.87
2018-04-28T08:09:20.380Z,60.93
2018-04-28T08:11:48.197Z,60.90
2018-04-28T08:14:15.860Z,60.75
2018-04-28T08:16:43.558Z,60.72
2018-04-28T08:19:11.094Z,60.77
2018-04-28T08:21:38.665Z,60.85
2018-04-28T08:24:06.568Z,60.53
2018-04-28T08:26:34.585Z,60.46
2018-04-28T08:29:02.050Z,59.59
2018-04-28T08:31:29.682Z,60.19
2018-04-28T08:33:57.204Z,59.69
2018-04-28T08:36:24.752Z,59.15
2018-04-28T08:38:52.360Z,58.85
2018-04-28T08:41:19.909Z,58.62
2018-04-28T08:43:47.516Z,57.93
2018-04-28T08:46:15.092Z,57.10
2018-04-28T08:48:42.666Z,57.41
2018-04-28T08:51:10.222Z,57.47
2018-04-28T08:53:37.922Z,57.33
2018-04-28T08:56:05.584Z,57.08
2018-04-28T08:58:33.201Z,56.88
2018-04-28T09:01:01.634Z,55.96
2018-04-28T09:03:29.152Z,52.64
2018-04-28T09:05:56.880Z,54.02
2018-04-28T09:08:24.435Z,54.55
2018-04-28T09:10:52.536Z,53.21
2018-04-28T09:13:22.286Z,53.68
2018-04-28T09:15:50.359Z,53.18
2018-04-28T09:18:17.990Z,53.46
2018-04-28T09:20:45.746Z,52.05
2018-04-28T09:23:13.296Z,51.96
2018-04-28T09:25:41.421Z,53.67
2018-04-28T09:28:08.977Z,52.24
2018-04-28T09:30:36.615Z,51.62
2018-04-28T09:33:04.221Z,52.68
2018-04-28T09:35:31.785Z,52.14
2018-04-28T09:37:59.313Z,52.24
2018-04-28T09:40:26.866Z,48.92
2018-04-28T09:42:54.394Z,49.75
2018-04-28T09:45:21.967Z,50.07
2018-04-28T09:47:50.349Z,49.14
2018-04-28T09:50:18.080Z,50.95
2018-04-28T09:52:45.650Z,48.87
2018-04-28T09:55:13.254Z,49.95
2018-04-28T09:57:40.830Z,51.06
2018-04-28T10:00:23.070Z,51.04
2018-04-28T10:02:50.687Z,51.60
2018-04-28T10:05:18.363Z,48.74
2018-04-28T10:07:46.260Z,49.86
2018-04-28T10:10:14.592Z,51.21
2018-04-28T10:12:42.194Z,50.05
2018-04-28T10:15:09.795Z,49.13
2018-04-28T10:17:37.429Z,49.17
2018-04-28T10:20:05.002Z,50.02
2018-04-28T10:22:32.527Z,49.56
2018-04-28T10:25:01.067Z,49.86
2018-04-28T10:27:29.853Z,49.75
2018-04-28T10:29:57.540Z,48.96
2018-04-28T10:32:25.105Z,49.97
2018-04-28T10:34:52.667Z,49.73
2018-04-28T10:37:20.213Z,49.46
2018-04-28T10:39:47.866Z,49.42
2018-04-28T10:42:15.418Z,49.37
2018-04-28T10:44:42.997Z,49.88
2018-04-28T10:47:10.525Z,50.27
2018-04-28T10:49:41.033Z,48.17
2018-04-28T10:52:11.891Z,49.01
2018-04-28T10:54:43.385Z,48.21
2018-04-28T10:57:11.349Z,48.14
2018-04-28T10:59:38.906Z,47.35
2018-04-28T11:02:06.486Z,47.74
2018-04-28T11:04:34.005Z,48.13
2018-04-28T11:07:05.218Z,47.91
2018-04-28T11:09:36.066Z,47.51
2018-04-28T11:12:07.615Z,48.08
2018-04-28T11:14:37.879Z,48.27
2018-04-28T11:17:09.577Z,48.90
2018-04-28T11:19:40.472Z,47.89
2018-04-28T11:22:12.312Z,47.74
2018-04-28T11:24:42.657Z,46.67
2018-04-28T11:27:12.019Z,48.63
2018-04-28T11:29:42.921Z,49.02
2018-04-28T11:32:15.347Z,47.98
2018-04-28T11:34:46.732Z,48.36
2018-04-28T11:37:19.849Z,47.96
2018-04-28T11:39:52.023Z,48.67
2018-04-28T11:42:25.811Z,48.16
2018-04-28T11:44:57.543Z,47.94
2018-04-28T11:47:27.424Z,47.31
2018-04-28T11:49:56.832Z,47.05
2018-04-28T11:52:28.636Z,46.95
2018-04-28T11:55:00.290Z,46.70
2018-04-28T11:57:32.192Z,47.18
2018-04-28T12:00:05.664Z,46.59
2018-04-28T12:02:35.360Z,46.68
2018-04-28T12:05:07.698Z,46.40
2018-04-28T12:07:39.386Z,46.54
2018-04-28T12:10:11.099Z,46.10
2018-04-28T12:12:43.483Z,46.75
2018-04-28T12:15:12.948Z,45.80
2018-04-28T12:17:42.612Z,46.66
2018-04-28T12:20:13.402Z,46.85
2018-04-28T12:22:45.886Z,44.30
2018-04-28T12:27:55.260Z,46.56
2018-04-28T12:30:30.564Z,45.47
2018-04-28T12:33:00.690Z,44.29
2018-04-28T12:35:31.076Z,44.48
2018-04-28T12:38:05.697Z,43.58
2018-04-28T12:40:34.772Z,45.26
2018-04-28T12:43:02.398Z,45.63
2018-04-28T12:45:29.980Z,44.42
2018-04-28T12:47:57.534Z,44.34
2018-04-28T12:50:25.200Z,44.40
2018-04-28T12:52:52.736Z,45.10
2018-04-28T12:55:20.516Z,45.73
2018-04-28T12:57:48.041Z,46.63
2018-04-28T13:00:16.148Z,46.00
2018-04-28T13:02:44.161Z,45.64
2018-04-28T13:05:11.780Z,44.44
2018-04-28T13:07:39.301Z,45.52
2018-04-28T13:10:06.854Z,46.11
2018-04-28T13:12:34.379Z,44.97
2018-04-28T13:15:02.305Z,44.34
2018-04-28T13:17:29.919Z,44.63
2018-04-28T13:19:57.556Z,46.05
2018-04-28T13:22:25.214Z,46.54
2018-04-28T13:24:52.974Z,46.28
2018-04-28T13:27:20.632Z,46.60
2018-04-28T13:29:48.245Z,46.80
2018-04-28T13:32:16.076Z,46.13
2018-04-28T13:34:43.626Z,46.73
2018-04-28T13:37:11.177Z,46.81
2018-04-28T13:39:38.726Z,46.27
2018-04-28T13:42:06.283Z,46.58
2018-04-28T13:44:33.836Z,46.85
2018-04-28T13:47:02.337Z,45.75
2018-04-28T13:49:29.996Z,46.49
2018-04-28T13:51:57.538Z,48.34
2018-04-28T13:54:25.513Z,47.33
2018-04-28T13:56:53.092Z,47.48
2018-04-28T13:59:20.673Z,47.62
2018-04-28T14:01:49.024Z,47.70
2018-04-28T14:04:16.602Z,48.94
2018-04-28T14:06:44.176Z,49.20
2018-04-28T14:09:11.810Z,48.81
2018-04-28T14:11:40.311Z,48.17
2018-04-28T14:14:07.860Z,48.39
2018-04-28T14:16:35.517Z,49.62
2018-04-28T14:19:03.787Z,50.36
2018-04-28T14:21:31.546Z,50.61
2018-04-28T14:23:59.220Z,52.15
2018-04-28T14:26:26.773Z,56.94
2018-04-28T14:28:54.328Z,57.22
2018-04-28T14:31:22.600Z,57.69
2018-04-28T14:33:50.128Z,57.83
2018-04-28T14:36:17.732Z,58.27
2018-04-28T14:41:28.930Z,57.45
2018-04-28T14:43:56.561Z,56.88
2018-04-28T14:46:25.215Z,58.73
2018-04-28T14:48:52.841Z,58.78
2018-04-28T14:51:20.399Z,58.92
2018-04-28T14:53:48.395Z,59.25
2018-04-28T14:56:15.927Z,57.98
2018-04-28T14:58:43.526Z,58.66
2018-04-28T15:01:11.669Z,59.97
2018-04-28T15:03:39.306Z,60.22
2018-04-28T15:06:06.864Z,60.21
2018-04-28T15:08:34.713Z,62.01
2018-04-28T15:11:02.264Z,62.72
2018-04-28T15:13:29.861Z,63.69
2018-04-28T15:15:57.395Z,63.72
2018-04-28T15:18:24.992Z,64.69
2018-04-28T15:20:52.528Z,65.51
2018-04-28T15:23:20.089Z,63.50
2018-04-28T15:25:47.623Z,65.61
2018-04-28T15:28:15.242Z,65.22
2018-04-28T15:30:42.852Z,68.96
2018-04-28T15:33:10.406Z,66.50
2018-04-28T15:35:37.934Z,67.89
2018-04-28T15:38:05.513Z,67.02
2018-04-28T15:40:33.041Z,68.64
2018-04-28T15:43:00.618Z,68.28
2018-04-28T15:45:28.238Z,70.09
2018-04-28T15:47:55.902Z,69.47
2018-04-28T15:50:23.423Z,69.47
2018-04-28T15:52:50.953Z,71.75
2018-04-28T15:55:18.604Z,70.81
2018-04-28T15:57:46.107Z,70.06
2018-04-28T16:00:14.053Z,69.76
2018-04-28T16:02:41.806Z,69.90
2018-04-28T16:05:09.417Z,69.12
2018-04-28T16:07:37.512Z,69.93
2018-04-28T16:10:05.362Z,68.04
2018-04-28T16:12:33.020Z,68.43
2018-04-28T16:15:00.770Z,71.47
2018-04-28T16:17:28.295Z,70.81
2018-04-28T16:19:55.885Z,69.50
2018-04-28T16:22:23.402Z,70.32
2018-04-28T16:24:51.031Z,71.49
2018-04-28T16:27:18.619Z,72.10
2018-04-28T16:29:46.137Z,71.78
2018-04-28T16:32:13.709Z,72.71
2018-04-28T16:34:41.238Z,73.10
2018-04-28T16:37:09.104Z,73.66
2018-04-28T16:39:36.619Z,73.58
2018-04-28T16:42:04.245Z,72.93
2018-04-28T16:44:31.833Z,73.63
2018-04-28T16:46:59.379Z,74.36
2018-04-28T16:49:26.909Z,72.75
2018-04-28T16:51:54.582Z,72.43
2018-04-28T16:54:22.151Z,72.69
2018-04-28T16:56:49.733Z,73.47
2018-04-28T16:59:17.261Z,73.82
2018-04-28T17:01:44.838Z,74.92
2018-04-28T17:04:12.378Z,75.46
2018-04-28T17:06:39.907Z,76.03
2018-04-28T17:09:07.496Z,75.58
2018-04-28T17:11:35.018Z,75.26
2018-04-28T17:14:02.574Z,74.94
2018-04-28T17:16:30.125Z,74.85
2018-04-28T17:18:57.734Z,75.22
2018-04-28T17:21:25.257Z,75.45
2018-04-28T17:23:52.806Z,75.41
2018-04-28T17:26:20.334Z,74.43
2018-04-28T17:28:47.982Z,74.69
2018-04-28T17:31:15.539Z,74.96
2018-04-28T17:33:43.194Z,74.22
2018-04-28T17:36:11.046Z,73.96
2018-04-28T17:38:38.603Z,74.25
2018-04-28T17:41:07.199Z,74.07
2018-04-28T17:43:34.763Z,74.06
2018-04-28T17:46:02.325Z,74.13
2018-04-28T17:48:29.854Z,73.60
2018-04-28T17:50:57.451Z,73.54
2018-04-28T17:53:24.981Z,74.07
2018-04-28T17:55:52.537Z,74.62
2018-04-28T17:58:20.068Z,74.45
2018-04-28T18:00:47.618Z,74.67
2018-04-28T18:03:15.237Z,74.87
2018-04-28T18:05:42.771Z,74.95
2018-04-28T18:08:10.368Z,74.38
2018-04-28T18:10:37.902Z,73.74
2018-04-28T18:13:05.450Z,74.48
2018-04-28T18:15:32.978Z,75.02
2018-04-28T18:18:00.532Z,74.72
2018-04-28T18:20:28.083Z,76.84
2018-04-28T18:22:55.636Z,78.59
2018-04-28T18:25:23.284Z,78.45
2018-04-28T18:27:50.844Z,78.81
2018-04-28T18:30:18.369Z,78.69
2018-04-28T18:32:45.948Z,78.81
2018-04-28T18:35:13.474Z,78.69
2018-04-28T18:37:41.021Z,79.45
2018-04-28T18:40:08.631Z,79.47
2018-04-28T18:42:36.153Z,83.56
2018-04-28T18:45:03.733Z,84.28
2018-04-28T18:47:31.286Z,84.35
2018-04-28T18:49:58.866Z,83.42
2018-04-28T18:52:26.412Z,83.02
2018-04-28T18:54:53.994Z,82.53
2018-04-28T18:57:21.518Z,82.06
2018-04-28T18:59:49.081Z,82.47
2018-04-28T19:02:16.621Z,81.62
2018-04-28T19:04:44.194Z,80.54
2018-04-28T19:07:11.721Z,80.07
2018-04-28T19:09:39.281Z,82.12
2018-04-28T19:12:07.831Z,81.00
2018-04-28T19:14:35.485Z,80.69
2018-04-28T19:17:03.011Z,81.27
2018-04-28T19:19:30.588Z,81.36
2018-04-28T19:21:58.470Z,82.61
2018-04-28T19:24:25.994Z,81.63
2018-04-28T19:26:53.598Z,82.58
2018-04-28T19:29:21.599Z,82.24
2018-04-28T19:31:49.219Z,81.90
2018-04-28T19:34:16.851Z,81.01
2018-04-28T19:36:44.754Z,80.38
2018-04-28T19:39:12.408Z,81.47
2018-04-28T19:41:41.204Z,82.08
2018-04-28T19:44:08.829Z,82.17
2018-04-28T19:46:36.398Z,82.49
2018-04-28T19:49:03.914Z,82.80
2018-04-28T19:51:31.538Z,83.78
2018-04-28T19:53:59.097Z,84.47
2018-04-28T19:56:26.665Z,84.57
2018-04-28T19:58:54.247Z,85.03
2018-04-28T20:01:21.878Z,87.29
2018-04-28T20:03:49.430Z,87.80
2018-04-28T20:06:16.995Z,87.04
2018-04-28T20:08:44.558Z,85.56
2018-04-28T20:11:12.435Z,84.30
2018-04-28T20:13:40.114Z,83.10
2018-04-28T20:16:07.687Z,84.12
2018-04-28T20:18:35.242Z,83.88
2018-04-28T20:21:02.770Z,84.14
2018-04-28T20:23:42.162Z,85.04
2018-04-28T20:26:09.796Z,84.73
2018-04-28T20:28:37.826Z,85.60
2018-04-28T20:31:05.409Z,86.47
2018-04-28T20:33:32.973Z,86.79
2018-04-28T20:36:00.509Z,85.87
2018-04-28T20:38:28.088Z,86.73
2018-04-28T20:40:57.983Z,85.39
2018-04-28T20:43:28.035Z,84.29
2018-04-28T20:45:57.887Z,84.53
2018-04-28T20:48:27.119Z,84.20
2018-04-28T20:50:55.619Z,85.13
2018-04-28T20:53:24.140Z,85.46
2018-04-28T20:55:51.701Z,85.06
2018-04-28T20:58:19.297Z,85.02
2018-04-28T21:00:46.854Z,84.50
2018-04-28T21:03:14.383Z,84.50
2018-04-28T21:05:41.933Z,83.93
2018-04-28T21:08:09.538Z,84.49
2018-04-28T21:10:38.901Z,84.00
2018-04-28T21:13:07.439Z,84.47
2018-04-28T21:15:36.665Z,84.99
2018-04-28T21:18:04.390Z,86.37
2018-04-28T21:20:32.126Z,86.13
2018-04-28T21:23:00.172Z,85.84
2018-04-28T21:25:28.604Z,84.20
2018-04-28T21:27:57.826Z,84.23
2018-04-28T21:30:25.653Z,84.33
2018-04-28T21:32:53.422Z,85.30
2018-04-28T21:35:22.456Z,85.12
2018-04-28T21:37:50.952Z,84.97
2018-04-28T21:40:18.668Z,86.13
2018-04-28T21:42:46.294Z,86.11
2018-04-28T21:45:13.817Z,85.78
2018-04-28T21:47:45.166Z,85.20
2018-04-28T21:50:16.878Z,85.65
2018-04-28T21:52:46.454Z,86.24
2018-04-28T21:55:18.024Z,85.77
2018-04-28T21:57:48.980Z,85.30
2018-04-28T22:00:16.603Z,84.53
2018-04-28T22:02:44.134Z,84.80
2018-04-28T22:05:12.438Z,84.40
2018-04-28T22:07:41.589Z,84.67
2018-04-28T22:10:11.809Z,84.88
2018-04-28T22:12:39.765Z,84.84
2018-04-28T22:15:10.316Z,85.00
2018-04-28T22:17:40.064Z,85.34
2018-04-28T22:20:09.279Z,85.15
2018-04-28T22:22:38.222Z,85.45
2018-04-28T22:25:06.129Z,85.93
2018-04-28T22:27:35.402Z,84.73
2018-04-28T22:30:04.360Z,84.49
2018-04-28T22:32:32.762Z,84.52
2018-04-28T22:35:00.375Z,86.79
2018-04-28T22:37:28.416Z,88.22
2018-04-28T22:39:56.071Z,86.79
2018-04-28T22:42:23.625Z,85.41
2018-04-28T22:44:51.220Z,85.35
2018-04-28T22:47:18.805Z,85.10
2018-04-28T22:49:46.327Z,84.14
2018-04-28T22:52:13.965Z,85.14
2018-04-28T22:54:41.482Z,86.37
2018-04-28T22:57:09.864Z,85.19
2018-04-28T22:59:38.050Z,84.93
2018-04-28T23:02:05.639Z,84.96
2018-04-28T23:04:33.171Z,84.62
2018-04-28T23:07:00.793Z,85.51
2018-04-28T23:09:28.349Z,86.19
2018-04-28T23:11:55.928Z,86.15
2018-04-28T23:14:23.451Z,86.07
2018-04-28T23:16:51.002Z,86.13
2018-04-28T23:19:18.583Z,85.61
2018-04-28T23:21:46.106Z,85.64
2018-04-28T23:24:13.663Z,84.77
2018-04-28T23:26:41.305Z,85.37
2018-04-28T23:29:08.863Z,85.14
2018-04-28T23:31:36.385Z,84.66
2018-04-28T23:34:03.970Z,85.65
2018-04-28T23:36:31.520Z,87.10
2018-04-28T23:38:59.073Z,86.45
2018-04-28T23:41:26.608Z,85.69
2018-04-28T23:43:54.178Z,85.09
2018-04-28T23:46:21.702Z,85.55
2018-04-28T23:48:49.332Z,85.53
2018-04-28T23:51:16.861Z,85.45
2018-04-28T23:53:44.434Z,84.53
2018-04-28T23:56:11.965Z,84.19
2018-04-28T23:58:40.217Z,84.50
